createdAt,value
2023-03-22T00:01:23.233Z,99965.00
2023-03-22T00:03:51.757Z,99961.66
2023-03-22T00:06:19.913Z,99952.75
2023-03-22T00:08:49.548Z,99945.22
2023-03-22T00:11:18.698Z,99943.34
2023-03-22T00:13:47.642Z,99944.03
2023-03-22T00:16:15.584Z,99938.16
2023-03-22T00:18:42.990Z,99937.50
2023-03-22T00:21:12.527Z,99938.66
2023-03-22T00:23:40.397Z,99928.97
2023-03-22T00:26:08.198Z,99933.81
2023-03-22T00:28:35.665Z,99925.41
2023-03-22T00:31:06.273Z,99930.31
2023-03-22T00:33:36.408Z,99925.44
2023-03-22T00:36:06.804Z,99930.13
2023-03-22T00:38:41.954Z,99926.63
2023-03-22T00:41:12.511Z,99921.75
2023-03-22T00:43:40.259Z,99918.22
2023-03-22T00:46:10.242Z,99922.41
2023-03-22T00:48:37.824Z,99919.72
2023-03-22T00:51:06.169Z,99921.75
2023-03-22T00:53:33.938Z,99909.84
2023-03-22T00:56:01.634Z,99915.22
2023-03-22T00:58:29.164Z,99904.31
2023-03-22T01:00:57.116Z,99898.47
2023-03-22T01:03:26.463Z,99901.63
2023-03-22T01:05:56.910Z,99900.47
2023-03-22T01:08:24.498Z,99897.78
2023-03-22T01:10:54.987Z,99897.09
2023-03-22T01:13:22.332Z,99893.25
2023-03-22T01:15:50.893Z,99891.38
2023-03-22T01:18:18.739Z,99890.72
2023-03-22T01:20:47.908Z,99892.91
2023-03-22T01:23:17.733Z,99887.00
2023-03-22T01:25:45.612Z,99891.38
2023-03-22T01:28:13.051Z,99884.16
2023-03-22T01:30:41.347Z,99878.66
2023-03-22T01:33:09.279Z,99874.13
2023-03-22T01:35:37.825Z,99869.94
2023-03-22T01:38:06.597Z,99870.63
2023-03-22T01:40:34.914Z,99866.44
2023-03-22T01:43:02.353Z,99866.44
2023-03-22T01:45:36.526Z,99865.78
2023-03-22T01:48:11.260Z,99870.13
2023-03-22T01:50:42.672Z,99869.78
2023-03-22T01:53:14.420Z,99853.97
2023-03-22T01:55:42.822Z,99848.97
2023-03-22T01:58:10.568Z,99860.34
2023-03-22T02:00:38.749Z,99857.97
2023-03-22T02:03:06.733Z,99856.84
2023-03-22T02:05:36.562Z,99853.59
2023-03-22T02:08:04.987Z,99853.88
2023-03-22T02:10:34.302Z,99851.66
2023-03-22T02:13:16.812Z,99851.06
2023-03-22T02:15:49.932Z,99855.53
2023-03-22T02:18:32.516Z,99854.06
2023-03-22T02:21:34.103Z,99845.34
2023-03-22T02:24:20.499Z,99842.59
2023-03-22T02:27:27.875Z,99848.03
2023-03-22T02:30:14.177Z,99843.84
2023-03-22T02:33:12.382Z,99844.53
2023-03-22T02:35:55.747Z,99852.34
2023-03-22T02:38:59.919Z,99846.59
2023-03-22T02:41:38.836Z,99842.50
2023-03-22T02:44:14.568Z,99843.34
2023-03-22T02:46:45.330Z,99846.97
2023-03-22T02:49:20.360Z,99841.50
2023-03-22T02:51:52.986Z,99840.31
2023-03-22T02:54:27.867Z,99851.16
2023-03-22T02:57:02.639Z,99852.75
2023-03-22T02:59:34.513Z,99862.06
2023-03-22T03:02:05.431Z,99866.16
2023-03-22T03:04:37.832Z,99870.97
2023-03-22T03:07:08.929Z,99874.00
2023-03-22T03:09:40.285Z,99882.84
2023-03-22T03:12:13.572Z,99882.94
2023-03-22T03:14:41.347Z,99894.66
2023-03-22T03:17:20.646Z,99883.78
2023-03-22T03:20:01.154Z,99887.94
2023-03-22T03:22:42.374Z,99888.31
2023-03-22T03:25:22.509Z,99888.66
2023-03-22T03:27:58.638Z,99885.19
2023-03-22T03:30:32.163Z,99883.53
2023-03-22T03:33:04.929Z,99888.09
2023-03-22T03:35:38.416Z,99889.94
2023-03-22T03:38:09.831Z,99892.38
2023-03-22T03:40:41.871Z,99892.91
2023-03-22T03:43:13.780Z,99888.63
2023-03-22T03:45:42.547Z,99886.34
2023-03-22T03:48:18.494Z,99900.03
2023-03-22T03:50:47.478Z,99899.72
2023-03-22T03:53:14.853Z,99902.22
2023-03-22T03:55:44.195Z,99899.06
2023-03-22T03:58:11.618Z,99897.31
2023-03-22T04:00:39.825Z,99893.22
2023-03-22T04:03:07.666Z,99885.81
2023-03-22T04:05:35.677Z,99883.16
2023-03-22T04:08:03.066Z,99885.28
2023-03-22T04:10:30.886Z,99884.94
2023-03-22T04:12:59.789Z,99875.53
2023-03-22T04:15:27.698Z,99884.78
2023-03-22T04:17:55.202Z,99877.03
2023-03-22T04:20:23.158Z,99879.00
2023-03-22T04:22:50.557Z,99876.97
2023-03-22T04:25:18.544Z,99867.03
2023-03-22T04:27:47.081Z,99866.03
2023-03-22T04:30:23.796Z,99870.31
2023-03-22T04:32:51.183Z,99870.25
2023-03-22T04:35:19.282Z,99865.28
2023-03-22T04:37:46.641Z,99862.06
2023-03-22T04:40:17.569Z,99862.63
2023-03-22T04:42:44.952Z,99859.09
2023-03-22T04:45:13.785Z,99849.22
2023-03-22T04:47:43.001Z,99858.41
2023-03-22T04:50:11.126Z,99862.78
2023-03-22T04:52:38.499Z,99854.53
2023-03-22T04:55:06.630Z,99855.38
2023-03-22T04:57:34.104Z,99857.19
2023-03-22T05:00:01.994Z,99843.97
2023-03-22T05:02:29.374Z,99846.53
2023-03-22T05:05:02.210Z,99849.66
2023-03-22T05:07:31.415Z,99850.81
2023-03-22T05:09:59.643Z,99853.09
2023-03-22T05:12:27.198Z,99855.41
2023-03-22T05:14:54.931Z,99847.34
2023-03-22T05:17:22.564Z,99851.75
2023-03-22T05:19:50.314Z,99856.97
2023-03-22T05:22:19.117Z,99859.63
2023-03-22T05:24:46.855Z,99861.00
2023-03-22T05:27:14.372Z,99858.16
2023-03-22T05:29:42.319Z,99865.34
2023-03-22T05:32:10.168Z,99861.78
2023-03-22T05:34:38.137Z,99863.34
2023-03-22T05:37:05.678Z,99859.06
2023-03-22T05:39:35.140Z,99852.31
2023-03-22T05:42:02.528Z,99854.38
2023-03-22T05:44:30.532Z,99855.09
2023-03-22T05:46:57.982Z,99849.72
2023-03-22T05:49:25.792Z,99851.78
2023-03-22T05:51:53.324Z,99851.22
2023-03-22T05:54:21.116Z,99847.69
2023-03-22T05:56:49.957Z,99854.72
2023-03-22T05:59:17.860Z,99856.72
2023-03-22T06:01:45.153Z,99849.53
2023-03-22T06:04:13.101Z,99847.34
2023-03-22T06:06:40.525Z,99853.19
2023-03-22T06:09:16.790Z,99854.81
2023-03-22T06:11:44.915Z,99855.59
2023-03-22T06:14:14.140Z,99852.72
2023-03-22T06:16:41.557Z,99860.09
2023-03-22T06:19:09.344Z,99863.22
2023-03-22T06:21:36.744Z,99861.59
2023-03-22T06:24:04.986Z,99868.94
2023-03-22T06:26:32.307Z,99873.94
2023-03-22T06:29:00.093Z,99869.81
2023-03-22T06:31:29.009Z,99866.56
2023-03-22T06:33:56.966Z,99867.63
2023-03-22T06:36:24.301Z,99873.13
2023-03-22T06:38:52.180Z,99864.69
2023-03-22T06:41:19.797Z,99867.66
2023-03-22T06:43:47.660Z,99877.34
2023-03-22T06:46:15.221Z,99871.47
2023-03-22T06:48:44.382Z,99877.16
2023-03-22T06:51:11.750Z,99877.41
2023-03-22T06:53:39.663Z,99877.09
2023-03-22T06:56:07.688Z,99880.59
2023-03-22T06:58:35.571Z,99878.34
2023-03-22T07:01:03.474Z,99882.75
2023-03-22T07:03:31.306Z,99878.72
2023-03-22T07:06:05.257Z,99881.16
2023-03-22T07:08:33.726Z,99887.00
2023-03-22T07:11:01.577Z,99878.91
2023-03-22T07:13:29.381Z,99881.59
2023-03-22T07:15:57.655Z,99888.53
2023-03-22T07:18:25.862Z,99886.22
2023-03-22T07:20:53.406Z,99888.91
2023-03-22T07:23:22.661Z,99890.69
2023-03-22T07:25:50.392Z,99883.97
2023-03-22T07:28:18.523Z,99878.25
2023-03-22T07:30:45.889Z,99882.13
2023-03-22T07:33:14.262Z,99881.00
2023-03-22T07:35:42.204Z,99880.75
2023-03-22T07:38:12.215Z,99884.09
2023-03-22T07:40:41.536Z,99876.81
2023-03-22T07:43:09.444Z,99868.41
2023-03-22T07:45:36.864Z,99870.50
2023-03-22T07:48:04.867Z,99869.53
2023-03-22T07:50:32.337Z,99873.19
2023-03-22T07:53:00.182Z,99874.38
2023-03-22T07:55:27.670Z,99871.38
2023-03-22T07:57:56.915Z,99867.53
2023-03-22T08:00:24.861Z,99866.25
2023-03-22T08:02:53.055Z,99863.94
2023-03-22T08:05:20.495Z,99863.78
2023-03-22T08:07:48.410Z,99865.41
2023-03-22T08:10:15.865Z,99853.19
2023-03-22T08:12:44.122Z,99860.47
2023-03-22T08:15:13.788Z,99865.06
2023-03-22T08:17:41.565Z,99861.16
2023-03-22T08:20:10.147Z,99858.97
2023-03-22T08:22:38.304Z,99856.91
2023-03-22T08:25:06.796Z,99856.94
2023-03-22T08:27:34.570Z,99860.94
2023-03-22T08:30:02.010Z,99864.69
2023-03-22T08:32:32.871Z,99852.81
2023-03-22T08:35:00.280Z,99851.81
2023-03-22T08:37:28.385Z,99850.25
2023-03-22T08:39:56.012Z,99854.59
2023-03-22T08:42:23.893Z,99850.00
2023-03-22T08:44:51.371Z,99845.78
2023-03-22T08:47:19.252Z,99844.97
2023-03-22T08:49:48.142Z,99848.06
2023-03-22T08:52:16.052Z,99850.47
2023-03-22T08:54:43.495Z,99850.56
2023-03-22T08:57:11.913Z,99849.78
2023-03-22T08:59:39.219Z,99853.47
2023-03-22T09:02:07.478Z,99849.47
2023-03-22T09:04:35.177Z,99850.78
2023-03-22T09:07:04.456Z,99842.19
2023-03-22T09:09:31.912Z,99838.34
2023-03-22T09:11:59.802Z,99835.91
2023-03-22T09:14:27.380Z,99839.13
2023-03-22T09:16:55.181Z,99833.09
2023-03-22T09:19:22.630Z,99835.28
2023-03-22T09:21:50.438Z,99832.94
2023-03-22T09:24:19.434Z,99832.47
2023-03-22T09:26:47.507Z,99834.56
2023-03-22T09:29:14.960Z,99832.69
2023-03-22T09:31:42.802Z,99826.75
2023-03-22T09:34:10.292Z,99827.88
2023-03-22T09:36:38.210Z,99823.94
2023-03-22T09:39:05.996Z,99826.13
2023-03-22T09:41:38.843Z,99820.59
2023-03-22T09:44:11.750Z,99822.50
2023-03-22T09:46:44.518Z,99819.03
2023-03-22T09:49:16.872Z,99809.63
2023-03-22T09:51:46.745Z,99810.91
2023-03-22T09:54:16.210Z,99812.03
2023-03-22T09:56:54.173Z,99811.06
2023-03-22T09:59:27.526Z,99807.59
2023-03-22T10:01:59.092Z,99807.00
2023-03-22T10:04:54.805Z,99801.31
2023-03-22T10:07:27.946Z,99804.63
2023-03-22T10:10:06.776Z,99805.69
2023-03-22T10:12:43.354Z,99807.25
2023-03-22T10:15:15.059Z,99794.22
2023-03-22T10:17:46.425Z,99804.03
2023-03-22T10:20:28.657Z,99803.44
2023-03-22T10:22:59.080Z,99803.00
2023-03-22T10:25:35.576Z,99796.56
2023-03-22T10:28:15.029Z,99796.97
2023-03-22T10:30:43.354Z,99797.19
2023-03-22T10:33:17.000Z,99794.06
2023-03-22T10:35:44.604Z,99795.75
2023-03-22T10:38:21.052Z,99791.56
2023-03-22T10:40:50.455Z,99792.56
2023-03-22T10:43:23.551Z,99797.13
2023-03-22T10:45:53.382Z,99792.00
2023-03-22T10:48:28.550Z,99787.41
2023-03-22T10:50:58.305Z,99779.72
2023-03-22T10:53:34.891Z,99775.34
2023-03-22T10:56:02.428Z,99772.06
2023-03-22T10:58:33.003Z,99771.34
2023-03-22T11:01:05.047Z,99772.06
2023-03-22T11:03:39.575Z,99766.81
2023-03-22T11:06:09.784Z,99761.91
2023-03-22T11:08:43.273Z,99753.25
2023-03-22T11:11:17.966Z,99757.38
2023-03-22T11:13:53.360Z,99757.13
2023-03-22T11:16:21.166Z,99748.88
2023-03-22T11:18:49.002Z,99745.09
2023-03-22T11:21:18.054Z,99735.19
2023-03-22T11:23:54.162Z,99735.84
2023-03-22T11:26:28.935Z,99719.75
2023-03-22T11:29:07.352Z,99730.41
2023-03-22T11:31:56.509Z,99723.91
2023-03-22T11:34:26.966Z,99725.03
2023-03-22T11:36:55.027Z,99722.28
2023-03-22T11:39:25.113Z,99714.00
2023-03-22T11:41:54.049Z,99707.28
2023-03-22T11:44:27.184Z,99701.22
2023-03-22T11:46:56.795Z,99700.97
2023-03-22T11:49:28.151Z,99698.00
2023-03-22T11:51:56.157Z,99692.75
2023-03-22T11:54:29.106Z,99699.56
2023-03-22T11:56:59.979Z,99691.75
2023-03-22T11:59:31.128Z,99683.97
2023-03-22T12:02:05.146Z,99680.88
2023-03-22T12:04:39.974Z,99688.22
2023-03-22T12:07:14.003Z,99684.06
2023-03-22T12:09:45.075Z,99687.25
2023-03-22T12:12:16.455Z,99683.22
2023-03-22T12:14:51.454Z,99679.91
2023-03-22T12:17:26.952Z,99682.72
2023-03-22T12:20:02.931Z,99682.41
2023-03-22T12:22:33.422Z,99684.34
2023-03-22T12:25:01.746Z,99674.31
2023-03-22T12:27:33.213Z,99664.94
2023-03-22T12:30:04.377Z,99667.59
2023-03-22T12:32:35.802Z,99669.59
2023-03-22T12:35:17.331Z,99671.47
2023-03-22T12:37:48.545Z,99674.78
2023-03-22T12:40:22.516Z,99670.50
2023-03-22T12:42:59.631Z,99666.88
2023-03-22T12:45:30.966Z,99657.84
2023-03-22T12:48:05.952Z,99659.09
2023-03-22T12:50:38.818Z,99647.03
2023-03-22T12:53:07.234Z,99640.38
2023-03-22T12:55:37.437Z,99641.78
2023-03-22T12:58:06.567Z,99638.16
2023-03-22T13:00:42.281Z,99634.31
2023-03-22T13:03:23.214Z,99636.22
2023-03-22T13:06:00.968Z,99634.63
2023-03-22T13:09:18.380Z,99637.00
2023-03-22T13:11:47.886Z,99631.94
2023-03-22T13:14:48.404Z,99640.38
2023-03-22T13:17:38.013Z,99632.69
2023-03-22T13:20:24.617Z,99632.66
2023-03-22T13:23:24.724Z,99631.13
2023-03-22T13:26:04.677Z,99625.00
2023-03-22T13:28:34.670Z,99628.63
2023-03-22T13:31:02.240Z,99624.78
2023-03-22T13:33:39.209Z,99622.63
2023-03-22T13:36:22.003Z,99615.22
2023-03-22T13:38:55.098Z,99610.84
2023-03-22T13:41:28.639Z,99607.81
2023-03-22T13:43:57.637Z,99599.88
2023-03-22T13:46:55.156Z,99598.75
2023-03-22T13:49:44.240Z,99601.78
2023-03-22T13:52:30.101Z,99598.16
2023-03-22T13:54:59.241Z,99595.34
2023-03-22T13:57:48.382Z,99600.22
2023-03-22T14:00:39.511Z,99593.44
2023-03-22T14:03:20.063Z,99606.59
2023-03-22T14:06:03.219Z,99602.00
2023-03-22T14:08:32.547Z,99597.06
2023-03-22T14:11:07.487Z,99595.16
2023-03-22T14:13:42.053Z,99589.59
2023-03-22T14:16:15.134Z,99590.41
2023-03-22T14:18:46.455Z,99589.09
2023-03-22T14:21:16.886Z,99583.25
